Time;durP1;ratioP1;P1;durP2;ratioP2;P2;SDS_P1;SDS_P2;PMS_P1;PMS_P2;Temp;Humidity;BMP_temperature;BMP_pressure;BME280_temperature;BME280_humidity;BME280_pressure;Samples;Min_cycle;Max_cycle;Signal;HPM_P1;HPM_P2
2022/12/21 00:01:15;;;;;;;20.60;11.30;;;;;;;0.53;75.43;100015.65;106673;1303;138263;-56
2022/12/21 00:03:43;;;;;;;23.60;10.20;;;;;;;0.57;75.41;100028.13;106785;1302;22115;-56
2022/12/21 00:06:09;;;;;;;19.30;10.30;;;;;;;0.59;75.27;100034.09;106705;1303;137860;-56
2022/12/21 00:08:41;;;;;;;19.10;10.80;;;;;;;0.61;75.26;100033.46;106797;1303;22184;-56
2022/12/21 00:11:08;;;;;;;19.00;11.70;;;;;;;0.63;75.16;100036.48;106740;1303;23290;-55
2022/12/21 00:13:35;;;;;;;23.90;12.10;;;;;;;0.65;75.19;100031.96;106693;1303;137430;-56
2022/12/21 00:16:07;;;;;;;18.80;10.70;;;;;;;0.68;75.09;100026.21;106779;1303;22120;-56
2022/12/21 00:18:34;;;;;;;19.50;10.50;;;;;;;0.70;75.11;100024.96;106667;1303;137419;-56
2022/12/21 00:21:03;;;;;;;24.00;12.10;;;;;;;0.71;75.14;100032.33;106756;1303;22126;-56
2022/12/21 00:23:30;;;;;;;22.00;12.00;;;;;;;0.72;75.02;100030.48;106633;1295;138048;-56
2022/12/21 00:26:02;;;;;;;18.30;12.00;;;;;;;0.73;75.17;100034.23;106785;1303;22178;-56
2022/12/21 00:28:29;;;;;;;20.40;10.70;;;;;;;0.73;75.13;100035.63;106790;1303;22242;-56
2022/12/21 00:31:21;;;;;;;18.90;11.40;;;;;;;0.73;75.24;100032.25;106674;1302;138129;-56
2022/12/21 00:33:47;;;;;;;23.40;12.40;;;;;;;0.73;75.18;100030.43;106745;1303;22205;-54
2022/12/21 00:36:15;;;;;;;;;;;;;;;0.73;75.13;100028.98;106695;1303;137390;-54
2022/12/21 00:38:41;;;;;;;16.90;9.90;;;;;;;0.71;75.24;100024.24;106789;1281;22124;-55
2022/12/21 00:41:13;;;;;;;20.90;11.30;;;;;;;0.71;75.19;100022.14;106803;1287;22132;-55
2022/12/21 00:43:40;;;;;;;21.20;12.00;;;;;;;0.72;75.47;100020.65;106798;1295;22115;-55
2022/12/21 00:46:07;;;;;;;21.60;11.40;;;;;;;0.71;75.42;100012.15;106741;1298;22129;-55
2022/12/21 00:48:34;;;;;;;17.40;10.20;;;;;;;0.71;75.49;100002.86;106592;1303;138213;-55
2022/12/21 00:51:20;;;;;;;17.90;11.10;;;;;;;0.72;75.57;99995.70;106792;1295;23293;-55
2022/12/21 00:53:47;;;;;;;17.80;10.40;;;;;;;0.74;75.53;99990.67;106599;1303;138230;-55
2022/12/21 00:56:14;;;;;;;;;;;;;;;0.74;75.47;99987.75;106807;1287;22332;-56
2022/12/21 00:58:41;;;;;;;23.70;12.20;;;;;;;0.75;75.44;99987.52;106774;1287;22176;-56
2022/12/21 01:01:12;;;;;;;;;;;;;;;0.75;75.32;99987.84;106717;1277;137326;-55
2022/12/21 01:03:39;;;;;;;22.30;10.60;;;;;;;0.75;75.19;99986.07;106762;1295;22951;-55
2022/12/21 01:06:06;;;;;;;21.00;11.60;;;;;;;0.75;75.22;99988.38;106609;1298;137182;-55
2022/12/21 01:08:34;;;;;;;22.50;13.00;;;;;;;0.76;75.19;99978.79;106679;1285;22227;-55
2022/12/21 01:11:02;;;;;;;25.60;11.10;;;;;;;0.76;75.17;99979.82;106784;1302;22198;-55
2022/12/21 01:13:30;;;;;;;19.40;11.20;;;;;;;0.75;74.94;99980.30;106630;1303;137145;-55
2022/12/21 01:15:57;;;;;;;21.20;11.30;;;;;;;0.75;74.84;99982.31;106788;1302;22984;-55
2022/12/21 01:18:24;;;;;;;;;;;;;;;0.75;74.89;99987.85;106719;1296;138217;-55
2022/12/21 01:20:52;;;;;;;17.50;10.10;;;;;;;0.72;74.96;99976.38;106787;1303;22854;-55
2022/12/21 01:23:19;;;;;;;21.40;11.00;;;;;;;0.76;74.87;99979.92;106595;1303;137745;-55
2022/12/21 01:25:46;;;;;;;20.00;11.90;;;;;;;0.76;74.83;99974.33;106834;1303;23060;-55
2022/12/21 01:28:15;;;;;;;22.10;11.80;;;;;;;0.76;74.76;99965.29;106802;1303;22144;-55
2022/12/21 01:30:41;;;;;;;20.10;11.40;;;;;;;0.75;74.64;99958.85;106656;1300;137944;-55
2022/12/21 01:33:15;;;;;;;21.20;12.20;;;;;;;0.71;74.55;99951.81;106713;1297;22852;-55
2022/12/21 01:35:41;;;;;;;20.10;12.00;;;;;;;0.74;74.55;99953.09;106598;1296;137377;-57
2022/12/21 01:38:08;;;;;;;;;;;;;;;0.75;74.34;99948.56;106685;1303;22330;-55
2022/12/21 01:40:35;;;;;;;19.40;10.60;;;;;;;0.76;74.28;99946.52;106762;1303;22142;-55
2022/12/21 01:43:12;;;;;;;;;;;;;;;0.77;74.31;99946.16;106656;1303;137954;-55
2022/12/21 01:45:38;;;;;;;19.70;10.70;;;;;;;0.79;74.12;99942.23;106622;1303;22231;-55
2022/12/21 01:48:06;;;;;;;;;;;;;;;0.80;74.07;99934.14;106637;1298;138278;-55
2022/12/21 01:50:41;;;;;;;20.00;11.80;;;;;;;0.83;74.16;99932.02;106537;1302;22219;-55
2022/12/21 01:53:30;;;;;;;22.10;10.90;;;;;;;0.85;74.06;99932.89;106749;1303;22312;-55
2022/12/21 01:56:00;;;;;;;21.10;10.80;;;;;;;0.85;74.10;99933.69;106553;1303;22209;-55
2022/12/21 01:58:27;;;;;;;24.00;12.80;;;;;;;0.88;74.01;99939.02;106468;1303;22173;-55
2022/12/21 02:00:54;;;;;;;;;;;;;;;0.90;74.01;99937.43;106401;1297;138878;-55
2022/12/21 02:03:22;;;;;;;19.30;11.30;;;;;;;0.91;73.85;99936.38;106711;1303;22142;-55
2022/12/21 02:05:52;;;;;;;21.60;11.40;;;;;;;0.88;73.88;99926.02;106437;1302;137792;-55
2022/12/21 02:08:19;;;;;;;25.10;11.90;;;;;;;0.92;73.82;99927.52;106501;1303;22294;-55
2022/12/21 02:10:46;;;;;;;20.80;11.40;;;;;;;0.93;73.64;99929.73;106465;1303;22174;-55
2022/12/21 02:13:15;;;;;;;19.00;11.50;;;;;;;0.93;73.77;99924.35;106496;1303;137825;-55
2022/12/21 02:15:50;;;;;;;24.00;11.90;;;;;;;0.92;73.76;99926.20;106645;1303;22130;-55
2022/12/21 02:18:51;;;;;;;19.50;11.30;;;;;;;0.93;73.67;99926.50;106616;1280;137651;-55
2022/12/21 02:21:28;;;;;;;20.50;11.70;;;;;;;0.91;73.59;99921.15;106640;1287;22133;-55
2022/12/21 02:24:26;;;;;;;24.10;11.90;;;;;;;0.90;73.75;99916.64;106485;1290;137849;-55
2022/12/21 02:27:15;;;;;;;20.90;11.40;;;;;;;0.88;73.59;99912.02;106611;1304;22953;-55
2022/12/21 02:30:03;;;;;;;19.60;9.80;;;;;;;0.87;73.55;99902.15;106506;1297;139488;-55
2022/12/21 02:32:45;;;;;;;18.40;10.10;;;;;;;0.88;73.62;99898.61;106692;1296;22119;-55
2022/12/21 02:35:18;;;;;;;21.40;11.30;;;;;;;0.89;73.59;99904.11;106486;1300;22309;-55
2022/12/21 02:38:11;;;;;;;19.70;10.80;;;;;;;0.86;73.59;99896.90;106673;1304;22397;-55
2022/12/21 02:41:05;;;;;;;21.80;11.20;;;;;;;0.90;73.66;99898.52;103688;1307;24332;-55
2022/12/21 02:47:09;;;;;;;21.50;11.10;;;;;;;0.92;73.61;99909.61;101784;1287;24193;-54
2022/12/21 02:50:06;;;;;;;22.30;10.10;;;;;;;0.92;73.37;99917.48;101082;1307;139772;-54
2022/12/21 02:52:55;;;;;;;17.80;10.50;;;;;;;0.91;73.68;99915.65;105204;1320;22158;-55
2022/12/21 02:55:25;;;;;;;21.70;10.90;;;;;;;0.89;73.43;99904.00;104921;1321;138122;-55
2022/12/21 02:58:12;;;;;;;22.70;10.90;;;;;;;0.89;73.48;99905.11;105191;1312;22970;-56
2022/12/21 03:00:46;;;;;;;22.40;10.80;;;;;;;0.88;73.44;99906.20;104913;1321;137484;-55
2022/12/21 03:06:20;;;;;;;24.20;11.20;;;;;;;0.86;73.62;99911.36;105037;1306;137776;-55
2022/12/21 03:09:19;;;;;;;23.70;12.10;;;;;;;0.87;73.45;99907.73;104978;1319;22359;-55
2022/12/21 03:11:52;;;;;;;20.00;11.70;;;;;;;0.87;73.34;99897.69;105051;1320;137697;-56
2022/12/21 03:14:37;;;;;;;24.60;13.60;;;;;;;0.86;73.36;99895.01;105131;1320;23113;-55
2022/12/21 03:17:41;;;;;;;21.80;10.80;;;;;;;0.85;73.32;99903.30;105174;1320;23481;-55
2022/12/21 03:20:21;;;;;;;21.00;12.50;;;;;;;0.87;73.19;99902.58;105095;1316;22176;-55
2022/12/21 03:23:17;;;;;;;22.00;11.40;;;;;;;0.88;73.32;99899.73;105251;1319;22203;-55
2022/12/21 03:25:47;;;;;;;22.00;11.60;;;;;;;0.90;73.39;99906.77;105552;1311;138510;-55
2022/12/21 03:28:16;;;;;;;26.60;12.50;;;;;;;0.93;73.59;99913.29;106084;1305;22268;-56
2022/12/21 03:30:45;;;;;;;26.30;13.60;;;;;;;0.94;73.52;99912.37;106589;1303;139144;-56
2022/12/21 03:33:14;;;;;;;23.70;13.20;;;;;;;0.96;73.59;99911.48;106562;1302;22233;-55
2022/12/21 03:35:55;;;;;;;21.80;13.00;;;;;;;0.98;73.68;99910.12;106397;1303;137880;-55
2022/12/21 03:38:26;;;;;;;21.50;12.10;;;;;;;0.99;73.47;99905.02;106672;1303;22111;-56
2022/12/21 03:40:54;;;;;;;23.20;12.50;;;;;;;0.99;73.48;99900.67;106475;1295;22117;-55
2022/12/21 03:43:34;;;;;;;23.70;12.40;;;;;;;0.97;73.44;99895.08;106509;1302;137774;-55
2022/12/21 03:46:03;;;;;;;22.10;12.90;;;;;;;1.00;73.31;99897.14;106508;1302;23050;-55
2022/12/21 03:48:43;;;;;;;18.60;11.30;;;;;;;1.01;73.35;99890.14;106559;1302;137135;-55
2022/12/21 03:51:14;;;;;;;23.00;12.00;;;;;;;1.00;73.24;99889.64;106555;1287;23374;-55
2022/12/21 03:53:50;;;;;;;21.50;12.10;;;;;;;1.00;73.20;99892.73;106556;1297;137824;-56
2022/12/21 03:56:32;;;;;;;26.40;13.10;;;;;;;0.99;73.25;99887.80;106669;1287;22135;-55
2022/12/21 03:58:59;;;;;;;20.50;12.00;;;;;;;0.98;73.39;99883.45;106615;1299;22218;-55
2022/12/21 04:01:25;;;;;;;;;;;;;;;0.97;73.18;99889.27;106506;1303;137135;-55
2022/12/21 04:03:54;;;;;;;22.60;12.50;;;;;;;0.93;73.18;99881.65;106647;1305;22121;-55
2022/12/21 04:06:23;;;;;;;24.80;13.30;;;;;;;0.93;73.15;99890.55;106519;1302;137824;-55
2022/12/21 04:08:49;;;;;;;27.90;14.40;;;;;;;0.91;73.13;99889.10;106478;1302;22376;-56
2022/12/21 04:14:02;;;;;;;27.40;13.20;;;;;;;0.89;73.33;99886.77;106617;1302;22339;-56
2022/12/21 04:16:29;;;;;;;22.60;12.50;;;;;;;0.87;73.21;99888.36;106700;1295;22153;-56
2022/12/21 04:21:41;;;;;;;26.40;13.50;;;;;;;0.86;73.30;99882.60;106636;1301;22131;-56
2022/12/21 04:28:07;;;;;;;25.40;11.70;;;;;;;0.86;73.44;99874.27;106496;1302;22172;-56
2022/12/21 04:29:57;;;;;;;;;;;;;;;0.86;73.52;99870.30;106582;1287;137542;-55
2022/12/21 04:32:23;;;;;;;19.70;11.60;;;;;;;0.86;73.33;99876.23;106685;1295;22131;-55
2022/12/21 04:34:50;;;;;;;;;;;;;;;0.86;73.52;99877.15;106715;1302;22327;-55
2022/12/21 04:37:33;;;;;;;20.70;11.10;;;;;;;0.86;73.49;99874.96;106536;1304;123304;-56
2022/12/21 04:40:01;;;;;;;18.50;11.70;;;;;;;0.85;73.51;99879.00;106638;1297;22835;-60
2022/12/21 04:42:28;;;;;;;22.20;12.90;;;;;;;0.84;73.52;99878.23;106521;1305;137383;-59
2022/12/21 04:44:54;;;;;;;23.40;12.40;;;;;;;0.83;73.49;99872.69;106642;1297;22420;-59
2022/12/21 04:47:21;;;;;;;21.50;12.90;;;;;;;0.81;73.64;99871.39;106664;1302;22138;-59
2022/12/21 04:49:48;;;;;;;22.70;12.60;;;;;;;0.82;73.76;99871.73;106545;1302;137148;-59
2022/12/21 04:52:15;;;;;;;22.90;13.30;;;;;;;0.81;73.57;99868.55;106691;1302;23208;-59
2022/12/21 04:54:42;;;;;;;21.00;12.70;;;;;;;0.82;73.60;99863.64;106544;1305;137794;-59
2022/12/21 04:57:08;;;;;;;;;;;;;;;0.82;73.71;99869.88;106653;1302;22344;-59
2022/12/21 04:59:35;;;;;;;19.40;11.00;;;;;;;0.83;73.52;99870.54;106534;1302;124413;-59
2022/12/21 05:02:02;;;;;;;23.00;13.30;;;;;;;0.82;73.64;99867.80;106651;1296;22327;-59
2022/12/21 05:04:29;;;;;;;;;;;;;;;0.82;73.96;99867.64;106675;1303;22346;-59
2022/12/21 05:06:55;;;;;;;26.20;13.10;;;;;;;0.82;73.97;99867.56;106533;1297;124125;-59
2022/12/21 05:09:22;;;;;;;;;;;;;;;0.82;74.20;99869.51;106665;1302;22486;-59
2022/12/21 05:11:48;;;;;;;26.00;14.10;;;;;;;0.78;74.43;99864.99;106533;1302;124281;-59
2022/12/21 05:14:15;;;;;;;;;;;;;;;0.77;74.46;99865.81;106719;1295;22343;-59
2022/12/21 05:16:41;;;;;;;26.50;15.20;;;;;;;0.81;74.63;99871.14;106686;1302;23351;-59
2022/12/21 05:19:08;;;;;;;;;;;;;;;0.79;74.83;99874.40;106560;1302;137835;-59
2022/12/21 05:21:35;;;;;;;25.90;14.60;;;;;;;0.78;74.92;99876.11;106670;1302;22837;-59
2022/12/21 05:24:02;;;;;;;24.90;15.00;;;;;;;0.78;75.02;99880.38;106558;1302;138115;-59
2022/12/21 05:26:28;;;;;;;28.30;16.10;;;;;;;0.77;75.04;99877.09;106652;1302;22328;-59
2022/12/21 05:28:55;;;;;;;28.60;15.20;;;;;;;0.76;75.13;99877.79;106666;1302;23440;-59
2022/12/21 05:31:22;;;;;;;31.80;15.20;;;;;;;0.75;75.22;99875.95;106532;1303;137828;-59
2022/12/21 05:33:49;;;;;;;;;;;;;;;0.73;75.24;99874.89;106647;1295;22847;-59
2022/12/21 05:36:16;;;;;;;28.80;15.10;;;;;;;0.72;75.20;99881.13;106371;1302;233985;-59
2022/12/21 05:39:49;;;;;;;28.50;15.00;;;;;;;0.56;75.04;99862.98;99761;1336;545436;-53
2022/12/21 05:42:15;;;;;;;31.40;17.20;;;;;;;0.69;75.26;99888.06;101173;1311;136745;-54
2022/12/21 05:44:42;;;;;;;24.90;14.80;;;;;;;0.69;75.04;99889.20;101111;1327;24325;-54
2022/12/21 05:47:09;;;;;;;26.50;15.20;;;;;;;0.67;75.19;99884.57;101074;1323;22513;-54
2022/12/21 05:49:36;;;;;;;27.40;15.90;;;;;;;0.66;75.30;99877.61;100969;1310;138252;-55
2022/12/21 05:52:02;;;;;;;25.30;15.10;;;;;;;0.65;75.29;99879.16;101170;1321;23996;-55
2022/12/21 05:54:29;;;;;;;32.20;19.20;;;;;;;0.61;75.14;99874.53;101025;1311;209082;-55
2022/12/21 05:56:56;;;;;;;;;;;;;;;0.59;75.19;99872.88;101274;1323;22477;-55
2022/12/21 05:59:23;;;;;;;31.30;16.10;;;;;;;0.56;75.25;99872.88;101325;1303;22530;-55
2022/12/21 06:01:49;;;;;;;31.90;16.20;;;;;;;0.55;75.31;99878.05;105210;1322;137277;-55
2022/12/21 06:04:16;;;;;;;29.70;16.30;;;;;;;0.54;75.56;99880.27;105968;1315;22138;-55
2022/12/21 06:06:45;;;;;;;29.40;16.40;;;;;;;0.54;75.71;99878.82;105800;1307;138048;-56
2022/12/21 06:09:12;;;;;;;28.50;15.70;;;;;;;0.55;75.95;99872.81;106516;1306;23238;-56
2022/12/21 06:11:38;;;;;;;33.10;16.10;;;;;;;0.58;76.00;99872.71;106449;1304;137624;-56
2022/12/21 06:14:05;;;;;;;25.60;15.20;;;;;;;0.60;75.98;99866.80;106581;1303;22108;-56
2022/12/21 06:16:32;;;;;;;31.10;16.70;;;;;;;0.62;75.98;99868.36;106536;1304;22219;-55
2022/12/21 06:18:59;;;;;;;;;;;;;;;0.61;75.97;99865.09;106456;1291;136648;-56
2022/12/21 06:21:26;;;;;;;27.10;15.50;;;;;;;0.66;75.97;99871.89;106582;1301;22036;-56
2022/12/21 06:23:53;;;;;;;30.80;15.90;;;;;;;0.67;75.94;99870.83;106509;1306;137398;-56
2022/12/21 06:26:20;;;;;;;31.60;17.10;;;;;;;0.68;76.08;99873.86;106626;1304;22258;-56
2022/12/21 06:28:48;;;;;;;35.30;17.60;;;;;;;0.70;76.09;99878.67;106610;1306;23016;-56
2022/12/21 06:31:15;;;;;;;34.60;17.20;;;;;;;0.72;76.03;99873.13;106449;1306;137643;-56
2022/12/21 06:33:42;;;;;;;;;;;;;;;0.73;76.02;99879.97;106594;1305;22323;-55
2022/12/21 06:36:09;;;;;;;34.60;19.20;;;;;;;0.74;75.91;99883.20;106496;1304;123292;-56
2022/12/21 06:38:36;;;;;;;36.60;20.60;;;;;;;0.76;76.13;99880.50;106563;1291;22264;-56
2022/12/21 06:41:04;;;;;;;;;;;;;;;0.78;76.12;99883.67;106570;1305;22832;-56
2022/12/21 06:43:31;;;;;;;22.20;12.20;;;;;;;0.75;76.23;99882.89;106449;1291;123526;-56
2022/12/21 06:45:59;;;;;;;34.50;18.70;;;;;;;0.80;76.28;99888.00;106594;1306;22353;-56
2022/12/21 06:48:27;;;;;;;32.70;16.60;;;;;;;0.80;76.25;99891.21;106501;1306;139269;-56
2022/12/21 06:50:57;;;;;;;28.50;17.70;;;;;;;0.82;76.30;99889.23;106587;1303;22882;-56
2022/12/21 06:53:25;;;;;;;37.80;19.00;;;;;;;0.85;76.20;99890.67;106567;1298;22124;-56
2022/12/21 06:56:05;;;;;;;39.20;20.60;;;;;;;0.87;76.10;99887.84;106606;1305;22134;-56
2022/12/21 06:58:33;;;;;;;41.80;19.90;;;;;;;0.91;75.93;99890.08;106529;1306;22141;-56
2022/12/21 07:01:06;;;;;;;41.10;19.50;;;;;;;0.94;75.92;99890.70;106465;1303;137430;-56
2022/12/21 07:03:33;;;;;;;35.10;20.50;;;;;;;0.99;75.83;99885.90;106464;1305;22160;-56
2022/12/21 07:06:08;;;;;;;34.10;18.20;;;;;;;1.02;75.62;99886.50;106474;1306;137200;-56
2022/12/21 07:08:35;;;;;;;32.30;17.60;;;;;;;1.07;75.45;99889.53;106547;1306;22137;-56
2022/12/21 07:11:04;;;;;;;28.50;15.90;;;;;;;1.10;75.33;99888.09;106497;1299;22141;-56
2022/12/21 07:13:33;;;;;;;31.90;17.10;;;;;;;1.13;75.01;99888.84;106436;1299;137488;-56
2022/12/21 07:16:00;;;;;;;35.60;20.20;;;;;;;1.15;75.14;99892.48;106613;1287;23228;-56
2022/12/21 07:18:26;;;;;;;41.60;20.50;;;;;;;1.18;74.95;99892.63;106423;1305;137530;-55
2022/12/21 07:20:57;;;;;;;39.10;21.90;;;;;;;1.20;74.68;99897.48;106563;1304;22143;-56
2022/12/21 07:23:26;;;;;;;42.10;22.50;;;;;;;1.21;74.56;99904.85;106559;1284;22973;-55
2022/12/21 07:25:53;;;;;;;39.10;20.60;;;;;;;1.21;74.59;99907.09;106451;1306;138072;-55
2022/12/21 07:28:20;;;;;;;81.10;37.20;;;;;;;1.22;74.52;99910.40;106581;1306;22211;-56
2022/12/21 07:30:48;;;;;;;45.00;24.80;;;;;;;1.22;74.46;99906.89;106447;1306;137853;-55
2022/12/21 07:33:15;;;;;;;41.00;22.10;;;;;;;1.23;74.37;99907.98;106533;1306;22201;-55
2022/12/21 07:35:42;;;;;;;33.60;18.00;;;;;;;1.24;74.13;99906.77;106444;1298;137603;-55
2022/12/21 07:38:09;;;;;;;33.20;18.00;;;;;;;1.26;74.01;99907.44;106606;1305;23345;-55
2022/12/21 07:40:35;;;;;;;28.40;16.60;;;;;;;1.29;74.14;99906.53;106545;1306;23155;-53
2022/12/21 07:43:09;;;;;;;30.40;17.00;;;;;;;1.31;74.18;99903.36;106423;1306;137717;-54
2022/12/21 07:45:46;;;;;;;28.80;16.70;;;;;;;1.35;74.06;99905.19;106502;1298;22138;-55
2022/12/21 07:48:14;;;;;;;33.20;16.80;;;;;;;1.38;74.00;99907.87;106426;1300;137601;-54
2022/12/21 07:50:41;;;;;;;35.10;20.00;;;;;;;1.43;73.88;99913.05;106518;1299;22163;-54
2022/12/21 07:53:08;;;;;;;31.10;18.30;;;;;;;1.46;73.99;99913.89;106571;1303;22250;-54
2022/12/21 07:55:34;;;;;;;30.60;17.20;;;;;;;1.49;73.88;99919.02;106404;1306;137254;-53
2022/12/21 07:58:01;;;;;;;35.30;20.40;;;;;;;1.50;73.93;99920.84;106546;1305;22352;-54
2022/12/21 08:00:28;;;;;;;37.60;21.20;;;;;;;1.52;73.70;99920.29;106479;1306;137146;-54
2022/12/21 08:02:55;;;;;;;39.40;22.80;;;;;;;1.52;73.62;99916.33;106532;1305;23221;-54
2022/12/21 08:05:22;;;;;;;123.20;61.10;;;;;;;1.52;73.56;99915.75;106519;1305;22440;-54
2022/12/21 08:07:49;;;;;;;59.10;32.40;;;;;;;1.54;73.68;99919.16;106439;1305;137163;-54
2022/12/21 08:10:16;;;;;;;39.00;22.60;;;;;;;1.54;73.66;99914.33;106526;1306;22213;-54
2022/12/21 08:12:43;;;;;;;;;;;;;;;1.54;73.69;99912.71;106451;1305;136817;-54
2022/12/21 08:15:10;;;;;;;43.80;23.00;;;;;;;1.56;73.46;99913.39;106578;1305;23026;-54
2022/12/21 08:17:36;;;;;;;39.40;20.90;;;;;;;1.57;73.54;99911.06;106458;1306;137642;-54
2022/12/21 08:20:03;;;;;;;44.10;22.10;;;;;;;1.58;73.79;99906.44;106560;1305;22211;-54
2022/12/21 08:22:30;;;;;;;46.20;22.30;;;;;;;1.60;73.90;99904.38;106553;1305;22151;-54
2022/12/21 08:24:57;;;;;;;38.00;20.50;;;;;;;1.63;73.79;99899.79;106452;1306;137364;-54
2022/12/21 08:27:24;;;;;;;;;;;;;;;1.64;73.59;99897.27;106613;1306;22429;-54
2022/12/21 08:29:50;;;;;;;36.00;19.20;;;;;;;1.64;73.42;99895.83;106446;1297;123798;-54
2022/12/21 08:32:17;;;;;;;33.50;17.40;;;;;;;1.65;73.30;99892.17;106520;1305;22265;-54
2022/12/21 08:34:45;;;;;;;29.60;17.70;;;;;;;1.65;73.17;99893.54;106553;1297;23205;-54
2022/12/21 08:37:17;;;;;;;30.60;17.50;;;;;;;1.68;73.10;99891.27;106418;1305;138152;-54
2022/12/21 08:39:44;;;;;;;34.70;17.60;;;;;;;1.70;73.10;99886.33;105401;1306;22924;-58
2022/12/21 08:42:12;;;;;;;;;;;;;;;1.72;73.08;99883.36;102204;1287;138183;-57
2022/12/21 08:44:39;;;;;;;32.50;17.20;;;;;;;1.76;72.94;99885.94;102066;1290;24651;-58
2022/12/21 08:47:06;;;;;;;33.20;18.80;;;;;;;1.79;72.75;99890.77;102073;1295;22967;-57
2022/12/21 08:49:33;;;;;;;37.00;20.90;;;;;;;1.82;72.81;99888.61;102122;1298;137542;-58
2022/12/21 08:52:00;;;;;;;;;;;;;;;1.86;72.63;99879.02;102270;1313;22846;-58
2022/12/21 08:54:27;;;;;;;48.20;27.80;;;;;;;1.89;72.52;99882.35;102114;1298;123287;-58
2022/12/21 08:56:54;;;;;;;116.10;61.20;;;;;;;1.92;72.45;99875.84;102260;1313;24389;-57
2022/12/21 08:59:21;;;;;;;52.50;27.30;;;;;;;1.96;72.51;99874.60;102166;1289;25396;-58
2022/12/21 09:01:47;;;;;;;37.40;20.40;;;;;;;2.00;72.27;99874.33;105918;1313;137592;-59
2022/12/21 09:04:14;;;;;;;37.50;20.40;;;;;;;2.03;72.14;99875.09;106492;1305;22933;-59
2022/12/21 09:06:41;;;;;;;37.60;19.10;;;;;;;2.07;72.01;99871.25;106427;1305;137719;-59
2022/12/21 09:09:08;;;;;;;;;;;;;;;2.09;71.69;99868.06;106546;1305;22434;-59
2022/12/21 09:11:35;;;;;;;32.40;17.20;;;;;;;2.11;71.64;99869.11;106372;1304;124602;-58
2022/12/21 09:14:17;;;;;;;34.10;18.40;;;;;;;2.14;71.37;99869.30;106602;1305;22983;-59
2022/12/21 09:16:44;;;;;;;33.70;17.60;;;;;;;2.15;71.41;99869.73;106529;1289;22102;-59
2022/12/21 09:19:10;;;;;;;;;;;;;;;2.17;71.07;99867.83;106450;1306;137107;-59
2022/12/21 09:21:37;;;;;;;32.90;17.40;;;;;;;2.18;70.93;99871.21;106561;1305;22766;-59
2022/12/21 09:24:05;;;;;;;34.70;19.60;;;;;;;2.20;70.84;99869.61;106407;1305;137457;-59
2022/12/21 09:26:31;;;;;;;30.40;17.30;;;;;;;2.21;70.74;99867.89;106559;1305;22179;-59
2022/12/21 09:28:58;;;;;;;32.00;18.00;;;;;;;2.22;70.73;99864.64;106522;1284;22149;-59
2022/12/21 09:31:25;;;;;;;41.00;18.90;;;;;;;2.23;70.38;99862.58;106408;1305;137157;-59
2022/12/21 09:33:53;;;;;;;;;;;;;;;2.23;70.16;99859.89;106562;1299;22351;-59
2022/12/21 09:36:21;;;;;;;35.00;18.80;;;;;;;2.23;70.23;99856.63;106468;1298;123107;-58
2022/12/21 09:38:48;;;;;;;35.00;20.50;;;;;;;2.24;70.23;99850.84;106446;1304;22235;-59
2022/12/21 09:41:22;;;;;;;37.50;22.50;;;;;;;2.25;70.48;99844.73;102537;1291;22504;-53
2022/12/21 09:44:26;;;;;;;34.00;20.00;;;;;;;2.28;70.50;99842.27;101801;1291;137401;-54
2022/12/21 09:46:55;;;;;;;32.60;19.50;;;;;;;2.29;70.21;99837.65;101964;1299;24116;-54
2022/12/21 09:49:28;;;;;;;33.60;19.40;;;;;;;2.30;69.98;99836.62;106016;1314;137395;-54
2022/12/21 09:51:56;;;;;;;36.10;19.70;;;;;;;2.31;70.23;99834.84;106349;1293;23049;-54
2022/12/21 09:54:42;;;;;;;40.10;21.40;;;;;;;2.32;70.14;99838.94;106318;1291;138115;-55
2022/12/21 09:57:10;;;;;;;38.90;21.80;;;;;;;2.34;69.99;99839.90;106372;1301;22341;-55
2022/12/21 09:59:37;;;;;;;43.10;22.90;;;;;;;2.36;69.86;99841.90;106257;1300;138145;-55
2022/12/21 10:02:46;;;;;;;37.70;21.20;;;;;;;2.37;69.85;99846.02;106315;1306;22217;-54
2022/12/21 10:05:31;;;;;;;37.80;19.60;;;;;;;2.40;69.84;99842.48;106458;1283;22640;-55
2022/12/21 10:08:07;;;;;;;34.50;21.20;;;;;;;2.42;69.70;99841.05;106505;1299;22225;-55
2022/12/21 10:10:44;;;;;;;36.60;21.00;;;;;;;2.45;69.52;99840.09;106389;1306;22250;-55
2022/12/21 10:13:26;;;;;;;42.50;23.00;;;;;;;2.47;69.39;99834.98;106190;1306;137544;-55
2022/12/21 10:16:08;;;;;;;43.30;22.80;;;;;;;2.52;69.18;99832.15;106483;1306;22352;-55
2022/12/21 10:18:59;;;;;;;41.10;22.20;;;;;;;2.56;69.00;99824.77;106292;1307;139764;-55
2022/12/21 10:21:29;;;;;;;37.20;20.00;;;;;;;2.61;68.93;99813.57;106452;1298;22685;-55
2022/12/21 10:23:56;;;;;;;35.40;18.90;;;;;;;2.66;68.98;99807.15;106375;1306;137951;-54
2022/12/21 10:26:25;;;;;;;35.10;19.10;;;;;;;2.72;68.88;99799.04;106364;1306;22121;-55
2022/12/21 10:29:00;;;;;;;150.20;81.10;;;;;;;2.77;68.25;99792.58;106396;1306;22189;-55
2022/12/21 10:31:31;;;;;;;64.70;35.00;;;;;;;2.82;68.11;99788.64;106340;1299;137415;-55
2022/12/21 10:33:58;;;;;;;45.00;24.60;;;;;;;2.89;67.93;99787.20;106467;1284;23244;-54
2022/12/21 10:36:34;;;;;;;40.90;23.20;;;;;;;2.95;67.58;99787.48;106369;1307;138327;-54
2022/12/21 10:39:00;;;;;;;36.20;21.30;;;;;;;3.01;67.42;99783.33;106521;1306;22991;-55
2022/12/21 10:41:33;;;;;;;31.80;19.00;;;;;;;3.07;67.22;99782.33;106540;1299;22344;-54
2022/12/21 10:43:59;;;;;;;33.10;18.00;;;;;;;3.13;66.93;99778.84;106523;1295;22130;-54
2022/12/21 10:46:30;;;;;;;;;;;;;;;3.18;66.91;99775.98;106517;1297;22376;-54
2022/12/21 10:49:00;;;;;;;27.20;16.40;;;;;;;3.23;66.94;99772.43;106369;1306;123648;-55
2022/12/21 10:51:32;;;;;;;28.10;15.90;;;;;;;3.28;66.54;99769.14;106428;1306;23235;-54
2022/12/21 10:54:06;;;;;;;30.70;16.50;;;;;;;3.32;66.09;99768.92;106454;1305;138052;-54
2022/12/21 10:56:43;;;;;;;28.10;16.70;;;;;;;3.36;65.61;99770.83;106533;1305;22179;-54
2022/12/21 10:59:28;;;;;;;46.50;23.10;;;;;;;3.41;65.51;99776.36;106430;1298;22366;-55
2022/12/21 11:01:55;;;;;;;48.00;23.10;;;;;;;3.45;65.26;99778.27;106545;1305;22319;-54
2022/12/21 11:04:23;;;;;;;36.70;19.90;;;;;;;3.48;64.88;99783.56;106539;1305;22333;-54
2022/12/21 11:06:57;;;;;;;;;;;;;;;3.49;64.70;99778.42;106418;1292;137031;-55
2022/12/21 11:09:39;;;;;;;28.10;16.10;;;;;;;3.51;64.60;99780.55;106510;1305;22257;-55
2022/12/21 11:12:20;;;;;;;36.00;17.10;;;;;;;3.53;64.41;99783.16;106432;1295;137995;-54
2022/12/21 11:14:48;;;;;;;34.10;19.00;;;;;;;3.53;64.27;99780.02;106425;1301;23377;-54
2022/12/21 11:17:28;;;;;;;43.60;23.00;;;;;;;3.54;64.40;99778.08;106581;1289;22303;-54
2022/12/21 11:20:09;;;;;;;42.50;24.30;;;;;;;3.55;64.36;99774.05;106510;1290;22136;-54
2022/12/21 11:22:37;;;;;;;40.90;24.40;;;;;;;3.56;64.45;99773.59;106491;1299;22136;-55
2022/12/21 11:25:26;;;;;;;42.80;23.50;;;;;;;3.56;64.39;99779.36;106394;1305;137009;-54
2022/12/21 11:28:01;;;;;;;51.40;24.50;;;;;;;3.55;64.00;99782.80;106504;1300;22175;-54
2022/12/21 11:30:34;;;;;;;45.20;25.70;;;;;;;3.56;64.01;99781.52;106294;1301;137375;-54
2022/12/21 11:33:01;;;;;;;45.60;25.10;;;;;;;3.57;64.16;99779.52;106405;1300;23022;-55
2022/12/21 11:35:28;;;;;;;43.70;24.80;;;;;;;3.58;64.35;99778.33;106543;1287;22227;-54
2022/12/21 11:38:02;;;;;;;39.30;23.40;;;;;;;3.59;64.28;99768.59;106522;1291;22131;-55
2022/12/21 11:40:29;;;;;;;46.50;24.40;;;;;;;3.61;64.30;99771.73;106538;1305;22170;-55
2022/12/21 11:42:59;;;;;;;46.60;24.20;;;;;;;3.63;64.01;99763.35;106394;1306;137379;-55
2022/12/21 11:45:43;;;;;;;36.40;22.10;;;;;;;3.66;64.12;99758.95;106496;1297;22148;-54
2022/12/21 11:48:29;;;;;;;40.50;21.20;;;;;;;3.69;64.03;99756.89;106334;1284;137390;-54
2022/12/21 11:51:20;;;;;;;32.90;19.20;;;;;;;3.71;63.99;99746.04;106529;1297;22142;-55
2022/12/21 11:54:11;;;;;;;42.40;21.50;;;;;;;3.78;63.07;99752.03;106345;1293;137826;-55
2022/12/21 11:56:44;;;;;;;46.30;23.00;;;;;;;3.84;62.76;99756.92;106540;1297;22227;-54